sensor_id;sensor_type;location;lat;lon;timestamp;temperature;humidity
12125;DHT22;6126;57.908;16.490;2023-07-31T00:00:36;16.70;78.30
12125;DHT22;6126;57.908;16.490;2023-07-31T00:03:02;16.50;78.10
12125;DHT22;6126;57.908;16.490;2023-07-31T00:05:28;16.30;77.80
12125;DHT22;6126;57.908;16.490;2023-07-31T00:07:54;16.60;78.10
12125;DHT22;6126;57.908;16.490;2023-07-31T00:10:20;16.40;77.90
12125;DHT22;6126;57.908;16.490;2023-07-31T00:12:46;16.40;78.00
12125;DHT22;6126;57.908;16.490;2023-07-31T00:15:14;16.70;78.30
12125;DHT22;6126;57.908;16.490;2023-07-31T00:17:40;16.50;78.10
12125;DHT22;6126;57.908;16.490;2023-07-31T00:20:06;16.70;78.10
12125;DHT22;6126;57.908;16.490;2023-07-31T00:22:33;16.60;77.90
12125;DHT22;6126;57.908;16.490;2023-07-31T00:24:59;16.60;77.70
12125;DHT22;6126;57.908;16.490;2023-07-31T00:27:25;16.70;77.70
12125;DHT22;6126;57.908;16.490;2023-07-31T00:29:51;16.60;77.50
12125;DHT22;6126;57.908;16.490;2023-07-31T00:32:17;16.70;77.60
12125;DHT22;6126;57.908;16.490;2023-07-31T00:34:43;16.70;77.50
12125;DHT22;6126;57.908;16.490;2023-07-31T00:37:09;16.80;77.50
12125;DHT22;6126;57.908;16.490;2023-07-31T00:39:35;17.10;77.70
12125;DHT22;6126;57.908;16.490;2023-07-31T00:42:01;17.00;77.50
12125;DHT22;6126;57.908;16.490;2023-07-31T00:44:27;16.80;77.20
12125;DHT22;6126;57.908;16.490;2023-07-31T00:46:54;16.80;77.10
12125;DHT22;6126;57.908;16.490;2023-07-31T00:49:22;16.90;78.00
12125;DHT22;6126;57.908;16.490;2023-07-31T00:51:48;17.20;77.50
12125;DHT22;6126;57.908;16.490;2023-07-31T00:54:14;17.30;77.50
12125;DHT22;6126;57.908;16.490;2023-07-31T00:56:40;17.10;77.20
12125;DHT22;6126;57.908;16.490;2023-07-31T00:59:07;17.10;77.10
12125;DHT22;6126;57.908;16.490;2023-07-31T01:01:33;17.20;77.30
12125;DHT22;6126;57.908;16.490;2023-07-31T01:03:59;17.00;77.00
12125;DHT22;6126;57.908;16.490;2023-07-31T01:09:40;16.90;76.90
12125;DHT22;6126;57.908;16.490;2023-07-31T01:12:14;17.30;77.30
12125;DHT22;6126;57.908;16.490;2023-07-31T01:15:04;16.90;76.90
12125;DHT22;6126;57.908;16.490;2023-07-31T01:17:37;17.10;77.10
12125;DHT22;6126;57.908;16.490;2023-07-31T01:20:11;17.20;77.20
12125;DHT22;6126;57.908;16.490;2023-07-31T01:22:58;17.30;77.30
12125;DHT22;6126;57.908;16.490;2023-07-31T01:26:11;17.10;77.10
12125;DHT22;6126;57.908;16.490;2023-07-31T01:28:55;17.20;77.20
12125;DHT22;6126;57.908;16.490;2023-07-31T01:31:29;17.00;77.00
12125;DHT22;6126;57.908;16.490;2023-07-31T01:34:00;17.00;77.10
12125;DHT22;6126;57.908;16.490;2023-07-31T01:36:28;17.20;77.20
12125;DHT22;6126;57.908;16.490;2023-07-31T01:39:01;16.90;77.00
12125;DHT22;6126;57.908;16.490;2023-07-31T01:41:28;16.80;76.90
12125;DHT22;6126;57.908;16.490;2023-07-31T01:43:54;17.00;77.20
12125;DHT22;6126;57.908;16.490;2023-07-31T01:46:19;17.10;77.30
12125;DHT22;6126;57.908;16.490;2023-07-31T01:48:45;16.90;77.20
12125;DHT22;6126;57.908;16.490;2023-07-31T01:51:11;17.20;77.50
12125;DHT22;6126;57.908;16.490;2023-07-31T01:53:37;16.90;77.30
12125;DHT22;6126;57.908;16.490;2023-07-31T01:56:03;16.80;77.20
12125;DHT22;6126;57.908;16.490;2023-07-31T01:58:29;16.90;77.40
12125;DHT22;6126;57.908;16.490;2023-07-31T02:00:55;17.00;77.60
12125;DHT22;6126;57.908;16.490;2023-07-31T02:03:21;16.70;77.30
12125;DHT22;6126;57.908;16.490;2023-07-31T02:05:48;16.90;77.50
12125;DHT22;6126;57.908;16.490;2023-07-31T02:08:15;16.80;77.40
12125;DHT22;6126;57.908;16.490;2023-07-31T02:10:42;17.00;77.70
12125;DHT22;6126;57.908;16.490;2023-07-31T02:13:08;17.10;77.70
12125;DHT22;6126;57.908;16.490;2023-07-31T02:15:34;16.90;77.70
12125;DHT22;6126;57.908;16.490;2023-07-31T02:18:00;16.90;78.60
12125;DHT22;6126;57.908;16.490;2023-07-31T02:20:26;16.80;77.70
12125;DHT22;6126;57.908;16.490;2023-07-31T02:22:52;17.10;78.10
12125;DHT22;6126;57.908;16.490;2023-07-31T02:25:18;16.70;77.70
12125;DHT22;6126;57.908;16.490;2023-07-31T02:27:43;16.80;77.90
12125;DHT22;6126;57.908;16.490;2023-07-31T02:30:10;16.80;77.90
12125;DHT22;6126;57.908;16.490;2023-07-31T02:32:36;16.80;78.00
12125;DHT22;6126;57.908;16.490;2023-07-31T02:35:02;16.80;78.00
12125;DHT22;6126;57.908;16.490;2023-07-31T02:37:28;17.00;78.30
12125;DHT22;6126;57.908;16.490;2023-07-31T02:39:55;16.70;78.00
12125;DHT22;6126;57.908;16.490;2023-07-31T02:42:20;16.70;78.00
12125;DHT22;6126;57.908;16.490;2023-07-31T02:44:46;16.80;78.30
12125;DHT22;6126;57.908;16.490;2023-07-31T02:47:12;16.60;78.20
12125;DHT22;6126;57.908;16.490;2023-07-31T02:49:38;16.60;78.40
12125;DHT22;6126;57.908;16.490;2023-07-31T02:52:04;16.50;78.50
12125;DHT22;6126;57.908;16.490;2023-07-31T02:54:31;16.50;78.80
12125;DHT22;6126;57.908;16.490;2023-07-31T02:56:56;16.50;78.80
12125;DHT22;6126;57.908;16.490;2023-07-31T02:59:22;16.50;78.90
12125;DHT22;6126;57.908;16.490;2023-07-31T03:01:48;16.50;79.10
12125;DHT22;6126;57.908;16.490;2023-07-31T03:04:14;16.40;79.20
12125;DHT22;6126;57.908;16.490;2023-07-31T03:06:40;16.30;79.20
12125;DHT22;6126;57.908;16.490;2023-07-31T03:09:06;16.50;79.40
12125;DHT22;6126;57.908;16.490;2023-07-31T03:11:32;16.40;79.20
12125;DHT22;6126;57.908;16.490;2023-07-31T03:13:57;16.40;79.10
12125;DHT22;6126;57.908;16.490;2023-07-31T03:16:23;16.50;79.20
12125;DHT22;6126;57.908;16.490;2023-07-31T03:18:49;16.20;78.90
12125;DHT22;6126;57.908;16.490;2023-07-31T03:21:15;16.30;79.30
12125;DHT22;6126;57.908;16.490;2023-07-31T03:23:41;16.00;79.20
12125;DHT22;6126;57.908;16.490;2023-07-31T03:26:08;16.00;79.50
12125;DHT22;6126;57.908;16.490;2023-07-31T03:28:34;16.10;79.70
12125;DHT22;6126;57.908;16.490;2023-07-31T03:31:00;16.10;79.90
12125;DHT22;6126;57.908;16.490;2023-07-31T03:33:26;15.80;79.70
12125;DHT22;6126;57.908;16.490;2023-07-31T03:35:52;16.10;80.10
12125;DHT22;6126;57.908;16.490;2023-07-31T03:38:19;16.00;80.00
12125;DHT22;6126;57.908;16.490;2023-07-31T03:40:45;15.90;80.00
12125;DHT22;6126;57.908;16.490;2023-07-31T03:43:12;15.80;79.90
12125;DHT22;6126;57.908;16.490;2023-07-31T03:45:38;15.90;80.20
12125;DHT22;6126;57.908;16.490;2023-07-31T03:48:04;16.20;80.70
12125;DHT22;6126;57.908;16.490;2023-07-31T03:50:30;16.00;80.50
12125;DHT22;6126;57.908;16.490;2023-07-31T03:52:56;16.00;80.50
12125;DHT22;6126;57.908;16.490;2023-07-31T03:55:22;15.90;80.30
12125;DHT22;6126;57.908;16.490;2023-07-31T03:57:48;16.00;81.10
12125;DHT22;6126;57.908;16.490;2023-07-31T04:00:14;16.10;80.30
12125;DHT22;6126;57.908;16.490;2023-07-31T04:02:40;16.00;80.30
12125;DHT22;6126;57.908;16.490;2023-07-31T04:05:07;16.20;80.60
12125;DHT22;6126;57.908;16.490;2023-07-31T04:07:33;16.00;80.40
12125;DHT22;6126;57.908;16.490;2023-07-31T04:09:59;16.30;80.60
12125;DHT22;6126;57.908;16.490;2023-07-31T04:12:25;16.30;80.50
12125;DHT22;6126;57.908;16.490;2023-07-31T04:14:51;16.30;80.30
12125;DHT22;6126;57.908;16.490;2023-07-31T04:17:18;16.30;80.30
12125;DHT22;6126;57.908;16.490;2023-07-31T04:19:44;16.20;80.00
12125;DHT22;6126;57.908;16.490;2023-07-31T04:22:09;16.40;80.20
12125;DHT22;6126;57.908;16.490;2023-07-31T04:24:35;16.80;80.40
12125;DHT22;6126;57.908;16.490;2023-07-31T04:27:01;16.40;79.90
12125;DHT22;6126;57.908;16.490;2023-07-31T04:29:27;16.60;80.00
12125;DHT22;6126;57.908;16.490;2023-07-31T04:31:53;16.50;79.80
12125;DHT22;6126;57.908;16.490;2023-07-31T04:34:19;16.60;79.80
12125;DHT22;6126;57.908;16.490;2023-07-31T04:36:45;16.80;79.80
12125;DHT22;6126;57.908;16.490;2023-07-31T04:39:10;17.00;79.80
12125;DHT22;6126;57.908;16.490;2023-07-31T04:41:36;16.80;79.50
12125;DHT22;6126;57.908;16.490;2023-07-31T04:44:02;16.90;79.70
12125;DHT22;6126;57.908;16.490;2023-07-31T04:46:31;16.80;79.50
12125;DHT22;6126;57.908;16.490;2023-07-31T04:48:57;17.00;79.80
12125;DHT22;6126;57.908;16.490;2023-07-31T04:51:23;16.80;79.50
12125;DHT22;6126;57.908;16.490;2023-07-31T04:53:49;16.80;79.60
12125;DHT22;6126;57.908;16.490;2023-07-31T04:56:15;16.80;79.50
12125;DHT22;6126;57.908;16.490;2023-07-31T04:58:41;16.90;79.60
12125;DHT22;6126;57.908;16.490;2023-07-31T05:01:07;16.90;80.40
12125;DHT22;6126;57.908;16.490;2023-07-31T05:03:33;17.00;79.70
12125;DHT22;6126;57.908;16.490;2023-07-31T05:05:59;16.90;79.60
12125;DHT22;6126;57.908;16.490;2023-07-31T05:08:25;16.90;79.50
12125;DHT22;6126;57.908;16.490;2023-07-31T05:10:51;17.10;79.60
12125;DHT22;6126;57.908;16.490;2023-07-31T05:13:17;17.20;79.60
12125;DHT22;6126;57.908;16.490;2023-07-31T05:15:43;17.40;79.80
12125;DHT22;6126;57.908;16.490;2023-07-31T05:18:08;17.20;79.50
12125;DHT22;6126;57.908;16.490;2023-07-31T05:20:34;17.10;79.30
12125;DHT22;6126;57.908;16.490;2023-07-31T05:23:00;17.30;79.60
12125;DHT22;6126;57.908;16.490;2023-07-31T05:25:26;17.40;79.60
12125;DHT22;6126;57.908;16.490;2023-07-31T05:27:52;17.40;79.60
12125;DHT22;6126;57.908;16.490;2023-07-31T05:30:18;16.90;79.00
12125;DHT22;6126;57.908;16.490;2023-07-31T05:32:44;17.10;79.30
12125;DHT22;6126;57.908;16.490;2023-07-31T05:35:10;17.40;79.60
12125;DHT22;6126;57.908;16.490;2023-07-31T05:37:35;17.20;79.30
12125;DHT22;6126;57.908;16.490;2023-07-31T05:40:01;17.20;79.40
12125;DHT22;6126;57.908;16.490;2023-07-31T05:42:27;17.30;79.40
12125;DHT22;6126;57.908;16.490;2023-07-31T05:44:53;17.30;79.40
12125;DHT22;6126;57.908;16.490;2023-07-31T05:47:19;17.30;79.40
12125;DHT22;6126;57.908;16.490;2023-07-31T05:49:45;17.20;79.30
12125;DHT22;6126;57.908;16.490;2023-07-31T05:52:11;17.10;79.20
12125;DHT22;6126;57.908;16.490;2023-07-31T05:54:37;17.30;79.30
12125;DHT22;6126;57.908;16.490;2023-07-31T05:57:03;17.50;79.50
12125;DHT22;6126;57.908;16.490;2023-07-31T05:59:29;17.50;79.50
12125;DHT22;6126;57.908;16.490;2023-07-31T06:01:58;17.50;79.50
12125;DHT22;6126;57.908;16.490;2023-07-31T06:04:25;17.60;79.50
12125;DHT22;6126;57.908;16.490;2023-07-31T06:06:51;17.20;78.90
12125;DHT22;6126;57.908;16.490;2023-07-31T06:09:17;17.40;79.10
12125;DHT22;6126;57.908;16.490;2023-07-31T06:11:43;17.70;79.40
12125;DHT22;6126;57.908;16.490;2023-07-31T06:14:09;17.60;79.20
12125;DHT22;6126;57.908;16.490;2023-07-31T06:16:35;17.60;79.20
12125;DHT22;6126;57.908;16.490;2023-07-31T06:19:01;17.50;78.90
12125;DHT22;6126;57.908;16.490;2023-07-31T06:21:27;17.70;79.00
12125;DHT22;6126;57.908;16.490;2023-07-31T06:23:53;17.70;79.00
12125;DHT22;6126;57.908;16.490;2023-07-31T06:26:19;17.60;78.80
12125;DHT22;6126;57.908;16.490;2023-07-31T06:28:45;17.60;78.70
12125;DHT22;6126;57.908;16.490;2023-07-31T06:31:12;17.80;78.80
12125;DHT22;6126;57.908;16.490;2023-07-31T06:33:37;17.70;78.60
12125;DHT22;6126;57.908;16.490;2023-07-31T06:36:03;17.70;78.40
12125;DHT22;6126;57.908;16.490;2023-07-31T06:38:29;17.80;78.50
12125;DHT22;6126;57.908;16.490;2023-07-31T06:40:55;17.60;78.20
12125;DHT22;6126;57.908;16.490;2023-07-31T06:43:21;18.00;78.60
12125;DHT22;6126;57.908;16.490;2023-07-31T06:45:47;17.70;78.30
12125;DHT22;6126;57.908;16.490;2023-07-31T06:48:16;17.70;78.10
12125;DHT22;6126;57.908;16.490;2023-07-31T06:50:42;17.70;78.10
12125;DHT22;6126;57.908;16.490;2023-07-31T06:53:08;17.90;78.30
12125;DHT22;6126;57.908;16.490;2023-07-31T06:55:34;17.80;78.10
12125;DHT22;6126;57.908;16.490;2023-07-31T06:58:00;18.00;78.20
12125;DHT22;6126;57.908;16.490;2023-07-31T07:00:26;17.70;77.90
12125;DHT22;6126;57.908;16.490;2023-07-31T07:02:52;18.10;78.30
12125;DHT22;6126;57.908;16.490;2023-07-31T07:05:18;18.10;78.20
12125;DHT22;6126;57.908;16.490;2023-07-31T07:07:44;18.00;78.00
12125;DHT22;6126;57.908;16.490;2023-07-31T07:10:10;18.10;78.10
12125;DHT22;6126;57.908;16.490;2023-07-31T07:12:36;18.10;78.00
12125;DHT22;6126;57.908;16.490;2023-07-31T07:15:03;18.10;77.90
12125;DHT22;6126;57.908;16.490;2023-07-31T07:17:30;18.30;77.90
12125;DHT22;6126;57.908;16.490;2023-07-31T07:19:59;18.40;77.90
12125;DHT22;6126;57.908;16.490;2023-07-31T07:22:26;18.20;77.50
12125;DHT22;6126;57.908;16.490;2023-07-31T07:24:53;18.30;77.40
12125;DHT22;6126;57.908;16.490;2023-07-31T07:27:19;18.40;77.40
12125;DHT22;6126;57.908;16.490;2023-07-31T07:29:46;18.50;77.50
12125;DHT22;6126;57.908;16.490;2023-07-31T07:32:12;18.60;77.50
12125;DHT22;6126;57.908;16.490;2023-07-31T07:34:38;18.40;77.40
12125;DHT22;6126;57.908;16.490;2023-07-31T07:37:04;18.40;77.30
12125;DHT22;6126;57.908;16.490;2023-07-31T07:39:30;18.30;77.50
12125;DHT22;6126;57.908;16.490;2023-07-31T07:41:56;18.50;77.20
12125;DHT22;6126;57.908;16.490;2023-07-31T07:44:22;18.70;77.30
12125;DHT22;6126;57.908;16.490;2023-07-31T07:46:48;18.70;77.80
12125;DHT22;6126;57.908;16.490;2023-07-31T07:49:14;18.60;76.70
12125;DHT22;6126;57.908;16.490;2023-07-31T07:51:40;18.80;76.70
12125;DHT22;6126;57.908;16.490;2023-07-31T07:54:05;18.90;76.60
12125;DHT22;6126;57.908;16.490;2023-07-31T07:56:33;19.00;76.50
12125;DHT22;6126;57.908;16.490;2023-07-31T07:58:58;19.10;76.40
12125;DHT22;6126;57.908;16.490;2023-07-31T08:01:24;19.20;76.00
12125;DHT22;6126;57.908;16.490;2023-07-31T08:03:50;19.30;75.80
12125;DHT22;6126;57.908;16.490;2023-07-31T08:06:17;19.30;75.80
12125;DHT22;6126;57.908;16.490;2023-07-31T08:08:42;19.40;75.70
12125;DHT22;6126;57.908;16.490;2023-07-31T08:11:08;19.40;75.50
12125;DHT22;6126;57.908;16.490;2023-07-31T08:13:34;19.60;75.50
12125;DHT22;6126;57.908;16.490;2023-07-31T08:16:03;19.80;75.20
12125;DHT22;6126;57.908;16.490;2023-07-31T08:18:30;19.90;74.80
12125;DHT22;6126;57.908;16.490;2023-07-31T08:20:56;20.00;74.50
12125;DHT22;6126;57.908;16.490;2023-07-31T08:23:22;20.20;74.50
12125;DHT22;6126;57.908;16.490;2023-07-31T08:25:48;20.30;74.10
12125;DHT22;6126;57.908;16.490;2023-07-31T08:28:16;20.50;73.70
12125;DHT22;6126;57.908;16.490;2023-07-31T08:30:42;20.60;73.50
12125;DHT22;6126;57.908;16.490;2023-07-31T08:33:08;20.70;73.30
12125;DHT22;6126;57.908;16.490;2023-07-31T08:35:34;20.80;73.10
12125;DHT22;6126;57.908;16.490;2023-07-31T08:38:00;20.80;72.90
12125;DHT22;6126;57.908;16.490;2023-07-31T08:40:26;20.90;72.80
12125;DHT22;6126;57.908;16.490;2023-07-31T08:42:55;21.00;72.60
12125;DHT22;6126;57.908;16.490;2023-07-31T08:45:28;21.10;72.40
12125;DHT22;6126;57.908;16.490;2023-07-31T08:47:56;21.30;72.20
12125;DHT22;6126;57.908;16.490;2023-07-31T08:50:23;21.40;71.80
12125;DHT22;6126;57.908;16.490;2023-07-31T08:52:50;21.60;71.60
12125;DHT22;6126;57.908;16.490;2023-07-31T08:55:17;21.70;71.20
12125;DHT22;6126;57.908;16.490;2023-07-31T08:57:51;21.80;71.10
12125;DHT22;6126;57.908;16.490;2023-07-31T09:00:18;21.80;70.90
12125;DHT22;6126;57.908;16.490;2023-07-31T09:03:00;21.80;70.60
12125;DHT22;6126;57.908;16.490;2023-07-31T09:05:30;22.00;70.70
12125;DHT22;6126;57.908;16.490;2023-07-31T09:07:57;22.00;70.20
12125;DHT22;6126;57.908;16.490;2023-07-31T09:10:24;22.20;70.10
12125;DHT22;6126;57.908;16.490;2023-07-31T09:12:51;22.30;69.80
12125;DHT22;6126;57.908;16.490;2023-07-31T09:15:17;22.50;69.50
12125;DHT22;6126;57.908;16.490;2023-07-31T09:17:44;22.50;69.10
12125;DHT22;6126;57.908;16.490;2023-07-31T09:20:20;22.40;69.10
12125;DHT22;6126;57.908;16.490;2023-07-31T09:22:48;22.20;70.10
12125;DHT22;6126;57.908;16.490;2023-07-31T09:25:19;22.00;69.60
12125;DHT22;6126;57.908;16.490;2023-07-31T09:27:59;21.90;69.70
12125;DHT22;6126;57.908;16.490;2023-07-31T09:30:27;21.80;69.80
12125;DHT22;6126;57.908;16.490;2023-07-31T09:33:06;21.80;69.90
12125;DHT22;6126;57.908;16.490;2023-07-31T09:35:35;21.60;69.80
12125;DHT22;6126;57.908;16.490;2023-07-31T09:38:06;21.50;70.00
12125;DHT22;6126;57.908;16.490;2023-07-31T09:40:37;21.50;70.10
12125;DHT22;6126;57.908;16.490;2023-07-31T09:43:06;21.50;69.90
12125;DHT22;6126;57.908;16.490;2023-07-31T09:45:36;21.50;69.90
12125;DHT22;6126;57.908;16.490;2023-07-31T09:48:10;21.60;69.60
12125;DHT22;6126;57.908;16.490;2023-07-31T09:50:39;21.80;69.40
12125;DHT22;6126;57.908;16.490;2023-07-31T09:53:07;22.00;68.90
12125;DHT22;6126;57.908;16.490;2023-07-31T09:55:34;22.00;68.50
12125;DHT22;6126;57.908;16.490;2023-07-31T09:58:05;22.00;68.40
12125;DHT22;6126;57.908;16.490;2023-07-31T10:00:33;21.90;68.60
12125;DHT22;6126;57.908;16.490;2023-07-31T10:03:01;21.80;68.80
12125;DHT22;6126;57.908;16.490;2023-07-31T10:05:42;21.60;68.90
12125;DHT22;6126;57.908;16.490;2023-07-31T10:08:15;21.60;69.10
12125;DHT22;6126;57.908;16.490;2023-07-31T10:10:44;21.60;68.70
12125;DHT22;6126;57.908;16.490;2023-07-31T10:13:14;21.50;68.80
12125;DHT22;6126;57.908;16.490;2023-07-31T10:15:41;21.40;68.90
12125;DHT22;6126;57.908;16.490;2023-07-31T10:18:09;21.30;69.10
12125;DHT22;6126;57.908;16.490;2023-07-31T10:20:37;21.00;69.30
12125;DHT22;6126;57.908;16.490;2023-07-31T10:23:03;20.80;69.80
12125;DHT22;6126;57.908;16.490;2023-07-31T10:25:30;20.60;70.30
12125;DHT22;6126;57.908;16.490;2023-07-31T10:27:58;20.40;70.70
12125;DHT22;6126;57.908;16.490;2023-07-31T10:30:27;20.20;71.00
12125;DHT22;6126;57.908;16.490;2023-07-31T10:32:56;20.00;71.50
12125;DHT22;6126;57.908;16.490;2023-07-31T10:35:23;19.70;71.90
12125;DHT22;6126;57.908;16.490;2023-07-31T10:37:49;19.60;72.60
12125;DHT22;6126;57.908;16.490;2023-07-31T10:40:28;19.50;73.10
12125;DHT22;6126;57.908;16.490;2023-07-31T10:42:56;19.40;73.30
12125;DHT22;6126;57.908;16.490;2023-07-31T10:45:37;19.30;73.50
12125;DHT22;6126;57.908;16.490;2023-07-31T10:48:06;19.40;73.80
12125;DHT22;6126;57.908;16.490;2023-07-31T10:50:38;19.40;73.70
12125;DHT22;6126;57.908;16.490;2023-07-31T10:53:31;19.60;73.90
12125;DHT22;6126;57.908;16.490;2023-07-31T10:56:05;19.70;73.90
12125;DHT22;6126;57.908;16.490;2023-07-31T10:58:33;19.80;73.90
12125;DHT22;6126;57.908;16.490;2023-07-31T11:01:02;20.00;73.70
12125;DHT22;6126;57.908;16.490;2023-07-31T11:03:48;20.10;73.50
12125;DHT22;6126;57.908;16.490;2023-07-31T11:06:18;20.10;73.30
12125;DHT22;6126;57.908;16.490;2023-07-31T11:08:46;20.00;73.40
12125;DHT22;6126;57.908;16.490;2023-07-31T11:11:17;19.90;73.80
12125;DHT22;6126;57.908;16.490;2023-07-31T11:13:52;19.80;74.00
12125;DHT22;6126;57.908;16.490;2023-07-31T11:16:20;19.80;74.40
12125;DHT22;6126;57.908;16.490;2023-07-31T11:18:48;19.60;74.40
12125;DHT22;6126;57.908;16.490;2023-07-31T11:21:18;19.60;74.70
12125;DHT22;6126;57.908;16.490;2023-07-31T11:23:50;19.50;74.90
12125;DHT22;6126;57.908;16.490;2023-07-31T11:26:18;19.40;75.00
12125;DHT22;6126;57.908;16.490;2023-07-31T11:28:48;19.40;75.10
12125;DHT22;6126;57.908;16.490;2023-07-31T11:31:15;19.30;75.10
12125;DHT22;6126;57.908;16.490;2023-07-31T11:33:42;19.30;75.20
12125;DHT22;6126;57.908;16.490;2023-07-31T11:36:19;19.30;75.20
12125;DHT22;6126;57.908;16.490;2023-07-31T11:38:46;19.30;75.30
12125;DHT22;6126;57.908;16.490;2023-07-31T11:41:16;19.30;75.30
12125;DHT22;6126;57.908;16.490;2023-07-31T11:43:42;19.40;75.30
12125;DHT22;6126;57.908;16.490;2023-07-31T11:46:09;19.40;75.10
12125;DHT22;6126;57.908;16.490;2023-07-31T11:48:37;19.30;75.20
12125;DHT22;6126;57.908;16.490;2023-07-31T11:51:10;19.30;75.30
12125;DHT22;6126;57.908;16.490;2023-07-31T11:53:53;19.30;75.20
12125;DHT22;6126;57.908;16.490;2023-07-31T11:56:23;19.40;75.30
12125;DHT22;6126;57.908;16.490;2023-07-31T11:58:55;19.60;75.10
12125;DHT22;6126;57.908;16.490;2023-07-31T12:01:27;19.80;74.70
12125;DHT22;6126;57.908;16.490;2023-07-31T12:03:54;20.20;74.40
12125;DHT22;6126;57.908;16.490;2023-07-31T12:06:21;20.40;73.70
12125;DHT22;6126;57.908;16.490;2023-07-31T12:08:47;20.70;73.20
12125;DHT22;6126;57.908;16.490;2023-07-31T12:11:14;20.90;72.70
12125;DHT22;6126;57.908;16.490;2023-07-31T12:13:40;21.10;72.40
12125;DHT22;6126;57.908;16.490;2023-07-31T12:16:07;21.20;72.10
12125;DHT22;6126;57.908;16.490;2023-07-31T12:18:37;21.40;71.80
12125;DHT22;6126;57.908;16.490;2023-07-31T12:21:09;21.50;71.50
12125;DHT22;6126;57.908;16.490;2023-07-31T12:23:37;21.60;71.30
12125;DHT22;6126;57.908;16.490;2023-07-31T12:26:11;21.70;71.10
12125;DHT22;6126;57.908;16.490;2023-07-31T12:28:45;21.70;70.90
12125;DHT22;6126;57.908;16.490;2023-07-31T12:31:17;21.80;70.70
12125;DHT22;6126;57.908;16.490;2023-07-31T12:33:45;21.80;70.60
12125;DHT22;6126;57.908;16.490;2023-07-31T12:36:14;21.80;70.50
12125;DHT22;6126;57.908;16.490;2023-07-31T12:38:42;21.90;70.40
12125;DHT22;6126;57.908;16.490;2023-07-31T12:41:09;21.90;70.30
12125;DHT22;6126;57.908;16.490;2023-07-31T12:43:36;21.90;70.30
12125;DHT22;6126;57.908;16.490;2023-07-31T12:46:03;21.90;70.10
12125;DHT22;6126;57.908;16.490;2023-07-31T12:48:29;21.90;69.90
12125;DHT22;6126;57.908;16.490;2023-07-31T12:50:56;21.90;69.80
12125;DHT22;6126;57.908;16.490;2023-07-31T12:53:22;21.90;69.70
12125;DHT22;6126;57.908;16.490;2023-07-31T12:55:48;21.90;69.60
12125;DHT22;6126;57.908;16.490;2023-07-31T12:58:14;21.80;69.60
12125;DHT22;6126;57.908;16.490;2023-07-31T13:00:40;21.90;69.70
12125;DHT22;6126;57.908;16.490;2023-07-31T13:03:06;21.90;69.50
12125;DHT22;6126;57.908;16.490;2023-07-31T13:05:31;21.90;69.20
12125;DHT22;6126;57.908;16.490;2023-07-31T13:07:57;22.00;69.10
12125;DHT22;6126;57.908;16.490;2023-07-31T13:10:24;22.00;69.10
12125;DHT22;6126;57.908;16.490;2023-07-31T13:12:52;22.10;69.00
12125;DHT22;6126;57.908;16.490;2023-07-31T13:15:18;22.00;68.80
12125;DHT22;6126;57.908;16.490;2023-07-31T13:17:44;22.10;68.80
12125;DHT22;6126;57.908;16.490;2023-07-31T13:20:11;21.90;68.80
12125;DHT22;6126;57.908;16.490;2023-07-31T13:22:37;21.60;69.10
12125;DHT22;6126;57.908;16.490;2023-07-31T13:25:03;21.40;69.50
12125;DHT22;6126;57.908;16.490;2023-07-31T13:27:29;21.30;69.80
12125;DHT22;6126;57.908;16.490;2023-07-31T13:29:55;21.10;69.90
12125;DHT22;6126;57.908;16.490;2023-07-31T13:32:21;21.00;70.10
12125;DHT22;6126;57.908;16.490;2023-07-31T13:34:48;20.90;70.30
12125;DHT22;6126;57.908;16.490;2023-07-31T13:37:14;20.80;70.40
12125;DHT22;6126;57.908;16.490;2023-07-31T13:39:41;20.80;70.40
12125;DHT22;6126;57.908;16.490;2023-07-31T13:42:08;20.70;70.40
12125;DHT22;6126;57.908;16.490;2023-07-31T13:44:40;20.80;70.40
12125;DHT22;6126;57.908;16.490;2023-07-31T13:47:08;20.80;70.20
12125;DHT22;6126;57.908;16.490;2023-07-31T13:49:35;20.90;70.00
12125;DHT22;6126;57.908;16.490;2023-07-31T13:52:03;20.90;69.90
12125;DHT22;6126;57.908;16.490;2023-07-31T13:54:29;20.90;69.80
12125;DHT22;6126;57.908;16.490;2023-07-31T13:56:55;20.90;69.80
12125;DHT22;6126;57.908;16.490;2023-07-31T13:59:21;20.80;69.60
12125;DHT22;6126;57.908;16.490;2023-07-31T14:01:47;20.80;69.60
12125;DHT22;6126;57.908;16.490;2023-07-31T14:04:14;20.80;69.60
12125;DHT22;6126;57.908;16.490;2023-07-31T14:06:40;20.70;69.70
12125;DHT22;6126;57.908;16.490;2023-07-31T14:09:06;20.60;69.80
12125;DHT22;6126;57.908;16.490;2023-07-31T14:11:32;20.50;69.80
12125;DHT22;6126;57.908;16.490;2023-07-31T14:13:58;20.40;69.90
12125;DHT22;6126;57.908;16.490;2023-07-31T14:16:24;20.30;70.20
12125;DHT22;6126;57.908;16.490;2023-07-31T14:18:50;20.20;70.50
12125;DHT22;6126;57.908;16.490;2023-07-31T14:21:16;20.00;70.80
12125;DHT22;6126;57.908;16.490;2023-07-31T14:23:42;19.80;71.20
12125;DHT22;6126;57.908;16.490;2023-07-31T14:26:08;19.60;71.60
12125;DHT22;6126;57.908;16.490;2023-07-31T14:28:34;19.50;72.00
12125;DHT22;6126;57.908;16.490;2023-07-31T14:31:00;19.40;72.30
12125;DHT22;6126;57.908;16.490;2023-07-31T14:33:26;19.30;72.50
12125;DHT22;6126;57.908;16.490;2023-07-31T14:35:52;19.20;72.70
12125;DHT22;6126;57.908;16.490;2023-07-31T14:38:18;19.20;72.80
12125;DHT22;6126;57.908;16.490;2023-07-31T14:40:44;19.20;73.00
12125;DHT22;6126;57.908;16.490;2023-07-31T14:43:10;19.10;73.10
12125;DHT22;6126;57.908;16.490;2023-07-31T14:45:36;19.00;73.20
12125;DHT22;6126;57.908;16.490;2023-07-31T14:48:02;19.00;73.30
12125;DHT22;6126;57.908;16.490;2023-07-31T14:50:28;19.00;73.50
12125;DHT22;6126;57.908;16.490;2023-07-31T14:52:54;18.90;73.40
12125;DHT22;6126;57.908;16.490;2023-07-31T14:55:20;18.90;73.70
12125;DHT22;6126;57.908;16.490;2023-07-31T14:57:46;18.90;73.80
12125;DHT22;6126;57.908;16.490;2023-07-31T15:00:12;18.80;73.90
12125;DHT22;6126;57.908;16.490;2023-07-31T15:02:39;18.80;73.90
12125;DHT22;6126;57.908;16.490;2023-07-31T15:05:07;18.50;73.70
12125;DHT22;6126;57.908;16.490;2023-07-31T15:07:33;18.90;74.00
12125;DHT22;6126;57.908;16.490;2023-07-31T15:10:02;18.90;74.00
12125;DHT22;6126;57.908;16.490;2023-07-31T15:12:29;19.00;74.10
12125;DHT22;6126;57.908;16.490;2023-07-31T15:14:55;18.70;73.80
12125;DHT22;6126;57.908;16.490;2023-07-31T15:17:21;19.00;74.10
12125;DHT22;6126;57.908;16.490;2023-07-31T15:19:47;18.80;74.70
12125;DHT22;6126;57.908;16.490;2023-07-31T15:22:13;19.00;74.20
12125;DHT22;6126;57.908;16.490;2023-07-31T15:24:39;18.50;73.70
12125;DHT22;6126;57.908;16.490;2023-07-31T15:27:05;18.90;74.30
12125;DHT22;6126;57.908;16.490;2023-07-31T15:29:33;18.80;74.30
12125;DHT22;6126;57.908;16.490;2023-07-31T15:32:05;18.80;74.50
12125;DHT22;6126;57.908;16.490;2023-07-31T15:34:31;18.70;74.40